Terminal Aerodrome Forecast
Issued by NWS

Home | Current Version | Previous Version | Text Only | Print | Product List | Glossary On
Versions: 1 2 3 4 5 6 7 8 9 10 11 12 13 14
000
FTUS44 KLIX 050541
TAFMCB
TAF
KMCB 050541Z 0506/0606 02005KT P6SM OVC004
     FM051100 04006KT 4SM -RA BR OVC003
      TEMPO 0513/0515 2SM SHRA OVC003
     FM051500 08007KT 3SM SHRA OVC008
     FM052100 10006KT 2SM SHRA VCTS OVC003CB
     FM060200 17006KT 2SM SHRA VCTS OVC003CB=

USA.gov is the U.S. government's official web portal to all federal, state and local government web resources and services.